Time;durP1;ratioP1;P1;durP2;ratioP2;P2;SDS_P1;SDS_P2;PMS_P1;PMS_P2;Temp;Humidity;BMP_temperature;BMP_pressure;BME280_temperature;BME280_humidity;BME280_pressure;Samples;Min_cycle;Max_cycle;Signal;HPM_P1;HPM_P2
2023/05/11 00:02:25;;;;;;;;;;;;;;;10.56;73.05;92578.16;2048518;70;20093;-73
2023/05/11 00:04:50;;;;;;;;;;;;;;;10.52;72.20;92570.19;2052698;70;20061;-72
2023/05/11 00:07:17;;;;;;;;;;;;;;;10.41;72.80;92568.88;2055231;69;20059;-73
2023/05/11 00:09:43;;;;;;;;;;;;;;;10.42;72.84;92572.41;2054916;70;20084;-73
2023/05/11 00:12:08;;;;;;;;;;;;;;;10.43;72.36;92573.88;2068495;69;20422;-73
2023/05/11 00:14:34;;;;;;;;;;;;;;;10.42;72.60;92570.34;2055400;70;20153;-73
2023/05/11 00:16:59;;;;;;;;;;;;;;;10.38;72.72;92569.34;2068233;69;20089;-73
2023/05/11 00:19:25;;;;;;;;;;;;;;;10.40;72.45;92567.41;2068607;69;20058;-73
2023/05/11 00:21:50;;;;;;;;;;;;;;;10.30;73.41;92566.78;2068726;69;20054;-73
2023/05/11 00:24:17;;;;;;;;;;;;;;;10.27;73.06;92564.50;2055506;69;20070;-72
2023/05/11 00:26:43;;;;;;;;;;;;;;;10.34;72.49;92557.88;2055671;70;20069;-73
2023/05/11 00:29:08;;;;;;;;;;;;;;;10.37;72.17;92556.66;2055675;69;20072;-73
2023/05/11 00:31:34;;;;;;;;;;;;;;;10.32;73.09;92566.19;2068780;69;20116;-73
2023/05/11 00:34:01;;;;;;;;;;;;;;;10.29;72.58;92556.88;2055659;70;20062;-73
2023/05/11 00:36:27;;;;;;;;;;;;;;;10.29;72.74;92559.69;2055518;70;20055;-73
2023/05/11 00:38:53;;;;;;;;;;;;;;;10.22;72.99;92546.59;2055623;69;20125;-73
2023/05/11 00:41:18;;;;;;;;;;;;;;;10.25;73.43;92556.66;2068687;69;20142;-73
2023/05/11 00:43:44;;;;;;;;;;;;;;;10.29;73.65;92550.53;2055784;69;20107;-73
2023/05/11 00:46:09;;;;;;;;;;;;;;;10.21;73.55;92553.56;2068678;69;20055;-73
2023/05/11 00:48:35;;;;;;;;;;;;;;;10.23;73.50;92550.88;2055966;69;20110;-73
2023/05/11 00:51:02;;;;;;;;;;;;;;;10.24;73.51;92545.97;2068718;69;20405;-73
2023/05/11 00:53:28;;;;;;;;;;;;;;;10.18;73.94;92547.09;2065846;69;20046;-73
2023/05/11 00:55:53;;;;;;;;;;;;;;;10.29;72.88;92547.72;2055722;69;20149;-73
2023/05/11 00:58:19;;;;;;;;;;;;;;;10.30;72.02;92549.19;2068692;69;20642;-74
2023/05/11 01:00:46;;;;;;;;;;;;;;;10.23;73.21;92545.25;2055781;70;20102;-75
2023/05/11 01:03:13;;;;;;;;;;;;;;;10.17;73.63;92545.63;2055771;69;20143;-73
2023/05/11 01:05:57;;;;;;;;;;;;;;;10.19;72.89;92545.00;2055810;70;20118;-73
2023/05/11 01:08:41;;;;;;;;;;;;;;;10.18;72.99;92549.91;2068705;69;20202;-72
2023/05/11 01:11:06;;;;;;;;;;;;;;;10.20;73.19;92540.84;2055604;70;20054;-73
2023/05/11 01:13:41;;;;;;;;;;;;;;;10.17;73.33;92547.69;2055768;70;20496;-73
2023/05/11 01:16:11;;;;;;;;;;;;;;;10.15;73.44;92545.50;2068922;69;20054;-74
2023/05/11 01:18:45;;;;;;;;;;;;;;;10.09;73.56;92544.41;2068940;69;20081;-73
2023/05/11 01:21:15;;;;;;;;;;;;;;;10.11;73.66;92539.63;2069011;69;20516;-73
2023/05/11 01:23:48;;;;;;;;;;;;;;;10.14;73.13;92543.31;2068838;69;20110;-73
2023/05/11 01:26:20;;;;;;;;;;;;;;;10.12;72.83;92543.91;2068891;69;20050;-73
2023/05/11 01:28:52;;;;;;;;;;;;;;;10.09;73.21;92547.94;2055866;70;20491;-73
2023/05/11 01:31:20;;;;;;;;;;;;;;;10.10;73.40;92537.44;2055906;70;20058;-74
2023/05/11 01:33:53;;;;;;;;;;;;;;;10.06;73.71;92537.91;2069004;69;20058;-73
2023/05/11 01:36:21;;;;;;;;;;;;;;;10.09;73.40;92531.06;2055884;70;20065;-72
2023/05/11 01:38:51;;;;;;;;;;;;;;;10.07;73.20;92533.03;2055853;70;20050;-74
2023/05/11 01:41:19;;;;;;;;;;;;;;;9.96;73.62;92537.31;2055991;70;20075;-73
2023/05/11 01:43:46;;;;;;;;;;;;;;;10.01;73.32;92529.84;2065688;69;20050;-73
2023/05/11 01:46:13;;;;;;;;;;;;;;;10.12;72.89;92538.28;2055709;70;20543;-73
2023/05/11 01:48:41;;;;;;;;;;;;;;;10.04;73.47;92537.81;2055425;69;20487;-73
2023/05/11 01:51:07;;;;;;;;;;;;;;;10.07;72.71;92535.84;2068313;69;20050;-73
2023/05/11 01:53:35;;;;;;;;;;;;;;;10.07;72.51;92530.94;2070595;69;20085;-72
2023/05/11 01:56:02;;;;;;;;;;;;;;;10.07;73.45;92536.56;2068174;69;20505;-72
2023/05/11 01:58:29;;;;;;;;;;;;;;;10.07;72.87;92530.22;2068426;69;20077;-72
2023/05/11 02:00:55;;;;;;;;;;;;;;;10.01;73.81;92527.03;2068511;69;20090;-73
2023/05/11 02:03:22;;;;;;;;;;;;;;;10.05;74.01;92528.03;2065541;69;20054;-72
2023/05/11 02:05:49;;;;;;;;;;;;;;;10.01;73.10;92536.22;2055605;69;20054;-72
2023/05/11 02:08:16;;;;;;;;;;;;;;;10.00;73.80;92529.13;2055406;70;20523;-72
2023/05/11 02:10:42;;;;;;;;;;;;;;;9.99;74.04;92538.16;2055283;69;20053;-72
2023/05/11 02:13:09;;;;;;;;;;;;;;;10.04;73.32;92531.44;2055320;70;20120;-72
2023/05/11 02:15:40;;;;;;;;;;;;;;;10.02;73.56;92526.41;2067844;69;20478;-72
2023/05/11 02:18:08;;;;;;;;;;;;;;;10.04;73.09;92531.44;2068342;69;20118;-73
2023/05/11 02:20:34;;;;;;;;;;;;;;;10.01;72.97;92527.78;2065562;69;20098;-73
2023/05/11 02:23:00;;;;;;;;;;;;;;;9.99;73.92;92530.47;2068451;69;20054;-72
2023/05/11 02:25:27;;;;;;;;;;;;;;;9.98;74.02;92523.38;2068377;69;20054;-72
2023/05/11 02:27:52;;;;;;;;;;;;;;;9.91;73.34;92527.91;2055491;69;20050;-73
2023/05/11 02:30:20;;;;;;;;;;;;;;;9.98;72.02;92529.00;2068265;69;20054;-72
2023/05/11 02:32:51;;;;;;;;;;;;;;;10.08;72.09;92523.22;2068305;69;20058;-72
2023/05/11 02:35:23;;;;;;;;;;;;;;;10.02;72.27;92525.69;2068205;69;20061;-72
2023/05/11 02:37:52;;;;;;;;;;;;;;;10.01;72.58;92516.53;2068196;69;20111;-72
2023/05/11 02:40:23;;;;;;;;;;;;;;;9.93;72.02;92525.19;2065369;69;20050;-72
2023/05/11 02:42:54;;;;;;;;;;;;;;;9.92;72.27;92526.56;2055220;69;20057;-71
2023/05/11 02:45:21;;;;;;;;;;;;;;;9.98;72.30;92528.25;2055282;69;20512;-72
2023/05/11 02:47:57;;;;;;;;;;;;;;;9.94;72.25;92525.94;2065387;69;20046;-72
2023/05/11 02:50:27;;;;;;;;;;;;;;;9.90;71.54;92523.63;2068197;69;20103;-71
2023/05/11 02:52:56;;;;;;;;;;;;;;;9.95;71.16;92523.88;2068350;69;20138;-72
2023/05/11 02:55:25;;;;;;;;;;;;;;;9.74;72.52;92521.91;2068071;69;20198;-71
2023/05/11 02:57:52;;;;;;;;;;;;;;;9.94;71.29;92511.88;2055278;69;20042;-72
2023/05/11 03:00:18;;;;;;;;;;;;;;;9.75;72.06;92510.03;2068161;69;20054;-72
2023/05/11 03:02:45;;;;;;;;;;;;;;;9.77;71.41;92512.25;2049565;69;20090;-72
2023/05/11 03:05:11;;;;;;;;;;;;;;;9.77;71.46;92513.00;2055458;69;20046;-73
2023/05/11 03:07:37;;;;;;;;;;;;;;;9.70;71.87;92511.16;2068483;69;20108;-73
2023/05/11 03:10:03;;;;;;;;;;;;;;;9.73;71.26;92518.38;2068459;69;20050;-73
2023/05/11 03:12:34;;;;;;;;;;;;;;;9.78;71.85;92513.72;2068490;69;20507;-74
2023/05/11 03:15:02;;;;;;;;;;;;;;;9.75;71.45;92515.66;2068343;69;20087;-72
2023/05/11 03:17:34;;;;;;;;;;;;;;;9.73;72.26;92517.63;2068484;69;20082;-73
2023/05/11 03:20:02;;;;;;;;;;;;;;;9.74;72.18;92514.19;2055652;69;20051;-73
2023/05/11 03:22:28;;;;;;;;;;;;;;;9.67;72.63;92518.00;2068437;69;20074;-71
2023/05/11 03:24:54;;;;;;;;;;;;;;;9.71;72.37;92514.69;2055436;69;20508;-73
2023/05/11 03:27:21;;;;;;;;;;;;;;;9.60;72.43;92514.06;2068464;69;20043;-73
2023/05/11 03:29:51;;;;;;;;;;;;;;;9.60;72.52;92513.34;2055384;69;20552;-73
2023/05/11 03:32:17;;;;;;;;;;;;;;;9.40;73.38;92496.72;2068421;69;20108;-72
2023/05/11 03:34:43;;;;;;;;;;;;;;;9.59;72.85;92507.00;2049333;69;20544;-72
2023/05/11 03:37:12;;;;;;;;;;;;;;;9.65;72.46;92506.63;2068266;69;20504;-73
2023/05/11 03:39:38;;;;;;;;;;;;;;;9.64;72.03;92499.53;2068253;69;20522;-73
2023/05/11 03:42:06;;;;;;;;;;;;;;;9.64;71.76;92499.53;2068313;69;20561;-73
2023/05/11 03:44:33;;;;;;;;;;;;;;;9.54;72.85;92488.41;2068323;69;20094;-73
2023/05/11 03:47:00;;;;;;;;;;;;;;;9.61;72.56;92495.84;2065637;69;20550;-73
2023/05/11 03:49:27;;;;;;;;;;;;;;;9.60;72.73;92488.78;2068419;69;20066;-73
2023/05/11 03:51:54;;;;;;;;;;;;;;;9.67;72.21;92492.72;2068307;69;20065;-73
2023/05/11 03:54:20;;;;;;;;;;;;;;;9.55;73.25;92497.56;2068121;69;20141;-73
2023/05/11 03:56:46;;;;;;;;;;;;;;;9.54;73.29;92496.13;2065617;69;20137;-73
2023/05/11 03:59:17;;;;;;;;;;;;;;;9.63;72.44;92495.28;2055452;69;20081;-73
2023/05/11 04:01:42;;;;;;;;;;;;;;;9.52;72.69;92493.91;2068364;69;20050;-73
2023/05/11 04:04:08;;;;;;;;;;;;;;;9.50;72.67;92488.16;2068221;69;20047;-72
2023/05/11 04:06:35;;;;;;;;;;;;;;;9.33;73.81;92494.84;2055420;70;20142;-73
2023/05/11 04:09:09;;;;;;;;;;;;;;;9.38;74.07;92496.56;2065675;69;20054;-74
2023/05/11 04:11:35;;;;;;;;;;;;;;;9.43;72.75;92495.47;2068412;69;20050;-72
2023/05/11 04:14:00;;;;;;;;;;;;;;;9.43;73.55;92494.75;2065548;69;20413;-73
2023/05/11 04:16:26;;;;;;;;;;;;;;;9.38;73.12;92493.03;2068323;69;20050;-73
2023/05/11 04:18:51;;;;;;;;;;;;;;;9.37;73.69;92492.28;2068338;69;20058;-73
2023/05/11 04:21:19;;;;;;;;;;;;;;;9.54;72.78;92487.69;2065495;69;20142;-73
2023/05/11 04:23:44;;;;;;;;;;;;;;;9.40;73.54;92493.16;2055161;70;20138;-73
2023/05/11 04:26:10;;;;;;;;;;;;;;;9.29;74.45;92493.88;2068274;69;20066;-73
2023/05/11 04:28:36;;;;;;;;;;;;;;;9.30;74.23;92496.09;2055261;69;20209;-73
2023/05/11 04:31:01;;;;;;;;;;;;;;;9.35;73.86;92497.06;2068341;69;20075;-73
2023/05/11 04:33:27;;;;;;;;;;;;;;;9.35;73.82;92485.84;2068365;69;20050;-73
2023/05/11 04:35:54;;;;;;;;;;;;;;;9.32;73.85;92495.47;2068260;69;20074;-74
2023/05/11 04:38:21;;;;;;;;;;;;;;;9.25;74.37;92488.00;2068183;69;20086;-74
2023/05/11 04:40:47;;;;;;;;;;;;;;;9.28;74.12;92498.03;2068170;69;20155;-74
2023/05/11 04:43:13;;;;;;;;;;;;;;;9.36;73.88;92493.66;2068130;69;20525;-73
2023/05/11 04:45:45;;;;;;;;;;;;;;;9.42;73.14;92482.78;2068192;69;20054;-73
2023/05/11 04:48:12;;;;;;;;;;;;;;;9.36;74.27;92490.84;2068278;69;20061;-74
2023/05/11 04:50:38;;;;;;;;;;;;;;;9.43;73.19;92487.03;2068279;69;20057;-73
2023/05/11 04:53:04;;;;;;;;;;;;;;;9.43;73.42;92500.38;2068343;69;20058;-74
2023/05/11 04:55:29;;;;;;;;;;;;;;;9.47;73.44;92497.06;2071015;69;20058;-73
2023/05/11 04:57:55;;;;;;;;;;;;;;;9.43;73.26;92500.38;2068194;69;20493;-73
2023/05/11 05:00:21;;;;;;;;;;;;;;;9.34;73.36;92498.41;2068158;69;20141;-73
2023/05/11 05:02:47;;;;;;;;;;;;;;;9.39;72.68;92508.53;2068184;69;20054;-73
2023/05/11 05:05:12;;;;;;;;;;;;;;;9.38;71.96;92496.56;2055446;70;20043;-73
2023/05/11 05:07:38;;;;;;;;;;;;;;;9.51;72.23;92511.38;2068758;69;20050;-73
2023/05/11 05:10:07;;;;;;;;;;;;;;;9.53;71.76;92500.25;2068549;69;20066;-73
2023/05/11 05:12:34;;;;;;;;;;;;;;;9.44;71.98;92496.22;2055826;69;20500;-73
2023/05/11 05:15:02;;;;;;;;;;;;;;;9.48;72.10;92502.06;2068656;69;20046;-74
2023/05/11 05:17:27;;;;;;;;;;;;;;;9.36;73.07;92504.16;2068714;69;20062;-74
2023/05/11 05:19:53;;;;;;;;;;;;;;;9.42;72.52;92499.63;2068629;69;20076;-74
2023/05/11 05:22:21;;;;;;;;;;;;;;;9.52;71.94;92493.91;2055532;70;20503;-74
2023/05/11 05:24:47;;;;;;;;;;;;;;;9.43;72.66;92498.28;2065701;69;20115;-72
2023/05/11 05:27:14;;;;;;;;;;;;;;;9.39;72.48;92489.63;2068551;69;20066;-74
2023/05/11 05:29:40;;;;;;;;;;;;;;;9.48;71.63;92492.91;2068535;69;20053;-73
2023/05/11 05:32:07;;;;;;;;;;;;;;;9.54;71.34;92494.03;2068609;69;20122;-74
2023/05/11 05:34:32;;;;;;;;;;;;;;;9.43;71.71;92498.28;2068619;69;20120;-74
2023/05/11 05:36:58;;;;;;;;;;;;;;;9.19;71.33;92499.59;2068546;69;20047;-73
2023/05/11 05:39:23;;;;;;;;;;;;;;;9.49;71.11;92500.75;2055522;69;20581;-74
2023/05/11 05:41:49;;;;;;;;;;;;;;;9.43;71.57;92505.97;2068621;69;20382;-74
2023/05/11 05:44:14;;;;;;;;;;;;;;;9.46;71.31;92504.03;2068508;69;20058;-76
2023/05/11 05:46:43;;;;;;;;;;;;;;;9.43;71.50;92503.91;2068546;69;20050;-76
2023/05/11 05:49:09;;;;;;;;;;;;;;;9.33;72.12;92503.28;2068503;69;20050;-74
2023/05/11 05:51:36;;;;;;;;;;;;;;;9.43;71.85;92501.09;2068639;69;20123;-74
2023/05/11 05:54:02;;;;;;;;;;;;;;;9.62;70.70;92496.59;2068435;69;20496;-74
2023/05/11 05:56:31;;;;;;;;;;;;;;;9.60;71.10;92496.47;2068351;69;20046;-73
2023/05/11 05:58:57;;;;;;;;;;;;;;;9.43;71.55;92498.28;2055790;69;20530;-73
2023/05/11 06:01:22;;;;;;;;;;;;;;;9.45;71.95;92503.31;2065831;69;20055;-72
2023/05/11 06:03:50;;;;;;;;;;;;;;;9.48;71.68;92506.97;2068543;69;20058;-72
2023/05/11 06:06:16;;;;;;;;;;;;;;;9.54;70.65;92501.75;2068575;69;20413;-72
2023/05/11 06:08:42;;;;;;;;;;;;;;;9.43;70.96;92509.53;2049454;70;20062;-73
2023/05/11 06:11:07;;;;;;;;;;;;;;;9.52;69.63;92502.31;2065662;69;20086;-73
2023/05/11 06:13:33;;;;;;;;;;;;;;;9.61;68.80;92497.94;2055459;70;20547;-73
2023/05/11 06:15:58;;;;;;;;;;;;;;;9.66;68.83;92506.00;2068438;69;20054;-73
2023/05/11 06:18:29;;;;;;;;;;;;;;;9.62;69.34;92508.59;2068564;69;20062;-73
2023/05/11 06:20:55;;;;;;;;;;;;;;;9.63;69.70;92507.25;2068629;69;20051;-73
2023/05/11 06:23:23;;;;;;;;;;;;;;;9.39;70.82;92512.09;2068636;69;20147;-72
2023/05/11 06:25:50;;;;;;;;;;;;;;;9.50;70.54;92509.91;2068406;69;20074;-73
2023/05/11 06:28:16;;;;;;;;;;;;;;;9.58;69.41;92519.59;2068440;69;20089;-73
2023/05/11 06:30:41;;;;;;;;;;;;;;;9.60;70.09;92497.22;2068626;69;20065;-73
2023/05/11 06:33:08;;;;;;;;;;;;;;;9.61;69.84;92512.00;2068699;69;20138;-72
2023/05/11 06:35:35;;;;;;;;;;;;;;;9.39;70.37;92506.47;2068494;69;20228;-73
2023/05/11 06:38:01;;;;;;;;;;;;;;;9.52;70.65;92515.66;2068424;69;20059;-74
2023/05/11 06:40:26;;;;;;;;;;;;;;;9.48;69.89;92502.06;2068471;69;20042;-72
2023/05/11 06:42:52;;;;;;;;;;;;;;;9.62;69.20;92499.41;2068414;69;20453;-73
2023/05/11 06:45:17;;;;;;;;;;;;;;;9.51;69.25;92495.25;2055677;70;20050;-73
2023/05/11 06:47:43;;;;;;;;;;;;;;;9.59;68.83;92506.25;2068702;69;20479;-73
2023/05/11 06:50:08;;;;;;;;;;;;;;;9.68;69.07;92502.59;2055411;70;20050;-73
2023/05/11 06:52:36;;;;;;;;;;;;;;;9.77;68.84;92506.63;2068421;69;20061;-73
2023/05/11 06:55:02;;;;;;;;;;;;;;;9.80;68.34;92503.31;2068375;69;20042;-73
2023/05/11 06:57:27;;;;;;;;;;;;;;;9.87;68.35;92505.16;2055522;69;20078;-73
2023/05/11 06:59:54;;;;;;;;;;;;;;;9.99;68.53;92505.16;2055737;69;20062;-73
2023/05/11 07:02:20;;;;;;;;;;;;;;;9.93;69.39;92497.06;2055382;70;20061;-73
2023/05/11 07:04:46;;;;;;;;;;;;;;;9.85;68.91;92501.47;2055479;69;20050;-73
2023/05/11 07:07:12;;;;;;;;;;;;;;;10.06;67.92;92506.25;2068507;69;20424;-73
2023/05/11 07:09:37;;;;;;;;;;;;;;;10.14;67.86;92506.72;2055344;70;20156;-72
2023/05/11 07:12:03;;;;;;;;;;;;;;;10.12;67.96;92501.69;2055409;69;20092;-72
2023/05/11 07:14:28;;;;;;;;;;;;;;;10.09;68.16;92502.22;2055505;70;20054;-73
2023/05/11 07:16:55;;;;;;;;;;;;;;;10.26;67.26;92503.91;2055655;70;20074;-73
2023/05/11 07:19:20;;;;;;;;;;;;;;;10.31;67.88;92497.19;2055513;70;20111;-73
2023/05/11 07:21:46;;;;;;;;;;;;;;;10.40;67.86;92496.31;2055580;70;20050;-73
2023/05/11 07:24:12;;;;;;;;;;;;;;;10.52;68.51;92501.91;2055463;69;20409;-73
2023/05/11 07:26:37;;;;;;;;;;;;;;;10.52;67.92;92504.72;2055606;69;20039;-73
2023/05/11 07:29:04;;;;;;;;;;;;;;;10.66;68.30;92509.09;2068261;69;20062;-73
2023/05/11 07:31:31;;;;;;;;;;;;;;;10.58;67.24;92503.00;2055546;69;20050;-73
2023/05/11 07:33:56;;;;;;;;;;;;;;;10.72;66.66;92500.28;2055632;69;20079;-73
2023/05/11 07:36:22;;;;;;;;;;;;;;;10.84;65.79;92500.94;2065577;69;20490;-73
2023/05/11 07:38:47;;;;;;;;;;;;;;;10.82;65.06;92500.84;2055365;69;20130;-73
2023/05/11 07:41:13;;;;;;;;;;;;;;;10.85;64.72;92496.03;2055511;70;20052;-73
2023/05/11 07:43:38;;;;;;;;;;;;;;;10.66;65.67;92505.53;2055497;69;20138;-73
2023/05/11 07:46:04;;;;;;;;;;;;;;;10.84;66.10;92503.75;2055404;69;20093;-73
2023/05/11 07:48:30;;;;;;;;;;;;;;;10.70;64.90;92502.97;2055416;70;20426;-74
2023/05/11 07:50:56;;;;;;;;;;;;;;;10.28;65.65;92504.78;2067900;69;20579;-73
2023/05/11 07:53:21;;;;;;;;;;;;;;;10.26;64.51;92495.47;2055557;69;20056;-73
2023/05/11 07:55:47;;;;;;;;;;;;;;;10.76;65.68;92499.75;2055349;70;20463;-73
2023/05/11 07:58:14;;;;;;;;;;;;;;;10.21;64.67;92502.91;2055382;70;20050;-73
2023/05/11 08:00:39;;;;;;;;;;;;;;;10.50;64.99;92499.00;2055456;70;20050;-74
2023/05/11 08:03:05;;;;;;;;;;;;;;;10.57;64.86;92495.91;2055451;70;20061;-74
2023/05/11 08:05:36;;;;;;;;;;;;;;;10.80;64.46;92495.09;2055343;69;20062;-74
2023/05/11 08:08:02;;;;;;;;;;;;;;;10.54;64.47;92502.78;2055431;69;20054;-73
2023/05/11 08:10:27;;;;;;;;;;;;;;;10.84;64.21;92494.59;2055196;70;20062;-73
2023/05/11 08:12:54;;;;;;;;;;;;;;;11.07;63.79;92490.94;2055247;70;20113;-73
2023/05/11 08:15:28;;;;;;;;;;;;;;;10.79;63.33;92485.19;2055404;70;20149;-73
2023/05/11 08:17:56;;;;;;;;;;;;;;;11.26;63.18;92493.41;2055231;70;20153;-72
2023/05/11 08:20:23;;;;;;;;;;;;;;;11.20;63.47;92495.88;2068133;69;20131;-74
2023/05/11 08:22:50;;;;;;;;;;;;;;;11.43;63.22;92492.94;2055247;70;20132;-73
2023/05/11 08:25:15;;;;;;;;;;;;;;;11.19;64.78;92491.63;2055306;69;20146;-73
2023/05/11 08:27:42;;;;;;;;;;;;;;;11.29;63.44;92497.06;2055255;70;20051;-73
2023/05/11 08:30:08;;;;;;;;;;;;;;;11.73;63.29;92495.19;2055236;70;20256;-73
2023/05/11 08:32:34;;;;;;;;;;;;;;;11.87;62.99;92498.81;2055579;70;20069;-74
2023/05/11 08:35:03;;;;;;;;;;;;;;;10.75;65.85;92490.56;2055215;70;20054;-73
2023/05/11 08:37:28;;;;;;;;;;;;;;;11.02;64.36;92492.06;2055431;69;20050;-73
2023/05/11 08:39:54;;;;;;;;;;;;;;;11.24;65.53;92489.75;2055393;69;20436;-74
2023/05/11 08:42:22;;;;;;;;;;;;;;;11.17;64.97;92486.56;2055695;69;20158;-74
2023/05/11 08:44:48;;;;;;;;;;;;;;;11.73;64.41;92484.66;2068849;69;20051;-74
2023/05/11 08:47:16;;;;;;;;;;;;;;;11.79;65.03;92496.25;2055715;70;20231;-75
2023/05/11 08:49:42;;;;;;;;;;;;;;;12.16;63.65;92492.53;2055729;69;20101;-73
2023/05/11 08:52:08;;;;;;;;;;;;;;;12.45;63.39;92484.13;2068653;69;20058;-73
2023/05/11 08:54:33;;;;;;;;;;;;;;;12.55;62.54;92486.75;2055631;69;20224;-74
2023/05/11 08:57:00;;;;;;;;;;;;;;;12.37;62.87;92485.81;2068712;69;20488;-73
2023/05/11 08:59:27;;;;;;;;;;;;;;;12.49;62.92;92486.44;2055825;69;20058;-73
2023/05/11 09:01:54;;;;;;;;;;;;;;;12.69;61.80;92486.72;2055678;69;20063;-73
2023/05/11 09:04:22;;;;;;;;;;;;;;;12.59;61.41;92480.56;2055661;70;20142;-74
2023/05/11 09:06:50;;;;;;;;;;;;;;;11.95;61.86;92477.38;2055739;70;20523;-75
2023/05/11 09:09:17;;;;;;;;;;;;;;;12.54;60.72;92476.81;2055990;69;20080;-74
2023/05/11 09:11:46;;;;;;;;;;;;;;;12.93;59.68;92475.91;2055771;69;20089;-74
2023/05/11 09:14:12;;;;;;;;;;;;;;;12.80;59.87;92476.66;2055721;69;20089;-74
2023/05/11 09:16:37;;;;;;;;;;;;;;;12.89;59.98;92476.44;2068754;69;20089;-73
2023/05/11 09:19:05;;;;;;;;;;;;;;;12.69;60.13;92483.88;2055850;69;20054;-74
2023/05/11 09:21:33;;;;;;;;;;;;;;;12.96;60.38;92471.78;2068634;69;20119;-73
2023/05/11 09:23:59;;;;;;;;;;;;;;;12.84;61.57;92474.03;2068818;69;20054;-73
2023/05/11 09:26:27;;;;;;;;;;;;;;;12.98;60.59;92477.56;2055820;69;20104;-73
2023/05/11 09:28:54;;;;;;;;;;;;;;;13.27;60.52;92474.00;2055572;70;20526;-73
2023/05/11 09:31:40;;;;;;;;;;;;;;;13.11;60.15;92471.13;2055842;69;20141;-74
2023/05/11 09:34:20;;;;;;;;;;;;;;;12.12;64.18;92475.41;2055793;70;20124;-75
2023/05/11 09:36:51;;;;;;;;;;;;;;;13.10;61.51;92469.66;2068777;69;20099;-73
2023/05/11 09:39:26;;;;;;;;;;;;;;;13.27;60.64;92471.19;2055447;70;20464;-75
2023/05/11 09:42:09;;;;;;;;;;;;;;;13.50;59.65;92466.56;2055754;70;20058;-74
2023/05/11 09:44:35;;;;;;;;;;;;;;;13.77;60.00;92462.84;2068785;69;20086;-75
2023/05/11 09:47:09;;;;;;;;;;;;;;;13.86;58.95;92462.56;2055609;70;20141;-74
2023/05/11 09:49:34;;;;;;;;;;;;;;;13.97;59.44;92464.50;2055745;69;20098;-73
2023/05/11 09:52:00;;;;;;;;;;;;;;;13.02;59.63;92463.63;2068620;69;20050;-74
2023/05/11 09:54:25;;;;;;;;;;;;;;;13.63;59.48;92465.75;2055635;69;20053;-74
2023/05/11 09:57:01;;;;;;;;;;;;;;;13.87;58.42;92466.13;2055903;69;20138;-75
2023/05/11 09:59:37;;;;;;;;;;;;;;;13.84;58.91;92461.75;2068547;69;20086;-75
2023/05/11 10:02:22;;;;;;;;;;;;;;;13.96;57.58;92454.53;2068519;69;20050;-74
2023/05/11 10:04:49;;;;;;;;;;;;;;;14.55;57.86;92453.53;2055565;69;20055;-75
2023/05/11 10:07:30;;;;;;;;;;;;;;;14.66;57.58;92454.69;2055619;70;20054;-73
2023/05/11 10:10:00;;;;;;;;;;;;;;;14.79;56.77;92453.81;2055495;70;20085;-73
2023/05/11 10:12:26;;;;;;;;;;;;;;;14.33;58.26;92450.47;2055618;70;20054;-74
2023/05/11 10:14:53;;;;;;;;;;;;;;;13.07;60.24;92450.41;2055718;69;20129;-74
2023/05/11 10:17:19;;;;;;;;;;;;;;;12.81;59.86;92447.06;2055520;69;20054;-73
2023/05/11 10:19:48;;;;;;;;;;;;;;;13.83;60.05;92449.69;2055480;69;20070;-73
2023/05/11 10:22:14;;;;;;;;;;;;;;;14.23;59.43;92450.75;2055541;70;20050;-74
2023/05/11 10:24:42;;;;;;;;;;;;;;;13.91;58.16;92443.69;2071032;69;20060;-72
2023/05/11 10:27:09;;;;;;;;;;;;;;;13.29;59.20;92443.03;2071851;69;20048;-73
2023/05/11 10:29:37;;;;;;;;;;;;;;;14.14;58.00;92431.97;2075202;69;20068;-73
2023/05/11 10:32:03;;;;;;;;;;;;;;;13.08;58.00;92435.66;2075137;69;20423;-74
2023/05/11 10:34:30;;;;;;;;;;;;;;;12.32;60.95;92430.53;2071784;69;20095;-73
2023/05/11 10:36:58;;;;;;;;;;;;;;;12.99;60.91;92433.81;2075212;69;20050;-74
2023/05/11 10:39:24;;;;;;;;;;;;;;;13.88;58.12;92439.28;2075182;69;20472;-73
2023/05/11 10:41:50;;;;;;;;;;;;;;;14.43;57.77;92428.25;2075256;69;20461;-74
2023/05/11 10:44:34;;;;;;;;;;;;;;;13.71;57.58;92426.53;2075101;69;20197;-74
2023/05/11 10:47:20;;;;;;;;;;;;;;;13.39;59.53;92426.53;2074890;69;20049;-73
2023/05/11 10:50:05;;;;;;;;;;;;;;;14.11;59.51;92421.19;2075039;69;20048;-76
2023/05/11 10:52:43;;;;;;;;;;;;;;;14.49;57.93;92420.03;2071862;69;20135;-74
2023/05/11 10:55:15;;;;;;;;;;;;;;;14.48;58.23;92420.69;2075195;69;20057;-74
2023/05/11 10:57:40;;;;;;;;;;;;;;;14.39;59.07;92413.91;2072013;69;20060;-77
2023/05/11 11:00:30;;;;;;;;;;;;;;;14.07;57.91;92415.38;2071816;69;20113;-73
2023/05/11 11:03:08;;;;;;;;;;;;;;;14.43;58.00;92410.50;2075038;69;20486;-73
2023/05/11 11:05:39;;;;;;;;;;;;;;;13.67;59.64;92415.03;2075087;69;20404;-73
2023/05/11 11:08:07;;;;;;;;;;;;;;;14.79;59.09;92408.47;2075162;69;20056;-74
2023/05/11 11:10:39;;;;;;;;;;;;;;;14.85;58.00;92413.69;2074868;69;20423;-74
2023/05/11 11:13:07;;;;;;;;;;;;;;;15.87;56.15;92415.50;2071715;69;20044;-74
2023/05/11 11:15:54;;;;;;;;;;;;;;;15.38;56.00;92410.81;2075118;69;20477;-75
2023/05/11 11:18:22;;;;;;;;;;;;;;;15.31;54.87;92403.47;2075070;69;20126;-78
2023/05/11 11:20:49;;;;;;;;;;;;;;;14.68;55.77;92406.63;2074969;69;20479;-76
2023/05/11 11:23:34;;;;;;;;;;;;;;;15.21;55.97;92406.63;2075008;69;20096;-73
2023/05/11 11:25:59;;;;;;;;;;;;;;;14.82;56.97;92404.38;2075038;69;20144;-73
2023/05/11 11:28:25;;;;;;;;;;;;;;;14.73;57.38;92397.63;2075070;69;20481;-73
2023/05/11 11:31:09;;;;;;;;;;;;;;;14.50;57.68;92400.94;2074992;69;20078;-73
2023/05/11 11:33:35;;;;;;;;;;;;;;;14.64;59.12;92398.69;2075062;69;20100;-73
2023/05/11 11:36:00;;;;;;;;;;;;;;;13.30;61.89;92401.34;2075084;69;20048;-73
2023/05/11 11:38:26;;;;;;;;;;;;;;;13.43;61.36;92397.72;2074942;69;20049;-73
2023/05/11 11:40:51;;;;;;;;;;;;;;;14.17;61.50;92398.81;2074986;69;20141;-74
2023/05/11 11:43:21;;;;;;;;;;;;;;;14.87;57.70;92396.75;2074931;69;20072;-77
2023/05/11 11:45:51;;;;;;;;;;;;;;;13.52;60.27;92398.81;2075103;69;20080;-73
2023/05/11 11:48:37;;;;;;;;;;;;;;;14.46;58.89;92398.63;2071665;69;20453;-75
2023/05/11 11:51:04;;;;;;;;;;;;;;;13.44;60.69;92393.50;2074927;69;20055;-75
2023/05/11 11:53:40;;;;;;;;;;;;;;;13.96;59.81;92392.28;2074856;69;20446;-75
2023/05/11 11:56:27;;;;;;;;;;;;;;;13.27;61.67;92392.03;2074866;69;20056;-74
2023/05/11 11:58:57;;;;;;;;;;;;;;;13.99;59.71;92393.09;2071552;69;20109;-74
2023/05/11 12:01:25;;;;;;;;;;;;;;;14.22;58.92;92391.94;2074843;69;20509;-74
2023/05/11 12:04:03;;;;;;;;;;;;;;;14.74;58.59;92390.59;2074887;69;20113;-74
2023/05/11 12:06:35;;;;;;;;;;;;;;;14.24;58.33;92383.53;2075232;69;20048;-74
2023/05/11 12:09:03;;;;;;;;;;;;;;;14.99;58.24;92392.31;2071668;69;20443;-74
2023/05/11 12:11:30;;;;;;;;;;;;;;;12.72;61.35;92392.25;2071634;69;20048;-76
2023/05/11 12:13:56;;;;;;;;;;;;;;;13.35;60.55;92386.75;2074900;69;20055;-74
2023/05/11 12:16:22;;;;;;;;;;;;;;;13.62;61.21;92390.78;2074965;69;20048;-75
2023/05/11 12:18:51;;;;;;;;;;;;;;;13.53;60.76;92384.03;2074981;69;20117;-75
2023/05/11 12:21:20;;;;;;;;;;;;;;;13.76;62.15;92385.75;2075066;69;20074;-76
2023/05/11 12:23:59;;;;;;;;;;;;;;;13.77;59.68;92381.53;2075019;69;20052;-74
2023/05/11 12:26:26;;;;;;;;;;;;;;;13.70;61.44;92379.81;2068904;69;20068;-75
2023/05/11 12:29:04;;;;;;;;;;;;;;;14.38;59.92;92386.22;2074987;69;20080;-73
2023/05/11 12:31:33;;;;;;;;;;;;;;;14.78;57.96;92381.53;2074775;69;20052;-75
2023/05/11 12:33:59;;;;;;;;;;;;;;;14.19;57.88;92371.31;2075083;69;20083;-73
2023/05/11 12:36:25;;;;;;;;;;;;;;;14.63;57.15;92371.72;2075154;69;20068;-74
2023/05/11 12:38:50;;;;;;;;;;;;;;;14.84;58.26;92369.69;2074802;69;20043;-77
2023/05/11 12:41:22;;;;;;;;;;;;;;;14.72;56.58;92369.97;2074879;69;20048;-75
2023/05/11 12:43:48;;;;;;;;;;;;;;;14.14;55.84;92363.28;2074794;69;20048;-76
2023/05/11 12:46:14;;;;;;;;;;;;;;;13.29;59.68;92363.88;2074825;69;20084;-75
2023/05/11 12:48:40;;;;;;;;;;;;;;;13.91;58.22;92362.34;2074731;69;20139;-74
2023/05/11 12:51:05;;;;;;;;;;;;;;;12.65;61.69;92360.19;2074648;69;20427;-74
2023/05/11 12:53:35;;;;;;;;;;;;;;;13.58;60.18;92353.81;2074855;69;20045;-74
2023/05/11 12:56:00;;;;;;;;;;;;;;;13.61;58.83;92358.22;2074742;69;20097;-75